AEA089 LEMD-MDSD
Flight info
| Callsign | AEA089 |
|---|---|
| Flight time | N/A |
| Altitude | 33000 |
| Route | BARDI/N0492F350 DCT ABETO/N0493F340 DCT TERVA/N0492F350 DCT ERPES/M086F340 DCT LENSI DCT 37N030W 34N040W/M086F360 30N050W DCT FIVZE/M086F380 DCT KEEKA/N0498F380 M597 BETIR UM597 PIXAR UM348 KOBET |
| Aircraft | B789/H-SDE1E2E3FGHIJ2J3J4J5M1RWXY/LB1D1 |
Departure
| Time | N/A |
|---|---|
| Airport | Adolfo Suárez Madrid–Barajas Airport (LEMD) |
Arrival
| Time | 2026-04-27 19:43 |
|---|---|
| Airport | Las Américas International Airport (MDSD) |
| Time | Latitude | Longitude | Altitude | Speed | Heading |
|---|---|---|---|---|---|
| 2026-04-27 15:01 | 34.07593 | -39.78442 | 38105 ft | 427 kts | 250° |
| 2026-04-27 15:01 | 34.06436 | -39.81737 | 38112 ft | 427 kts | 250° |
| 2026-04-27 15:02 | 34.04117 | -39.88331 | 38110 ft | 427 kts | 250° |
| 2026-04-27 15:02 | 34.01806 | -39.94886 | 38116 ft | 427 kts | 250° |
| 2026-04-27 15:03 | 33.99479 | -40.01477 | 38119 ft | 427 kts | 251° |
| 2026-04-27 15:03 | 33.97220 | -40.08082 | 38115 ft | 426 kts | 251° |
| 2026-04-27 15:04 | 33.94940 | -40.14670 | 38116 ft | 425 kts | 251° |
| 2026-04-27 15:04 | 33.92668 | -40.21242 | 38120 ft | 425 kts | 251° |
| 2026-04-27 15:05 | 33.90387 | -40.27823 | 38122 ft | 426 kts | 251° |
| 2026-04-27 15:05 | 33.88102 | -40.34398 | 38133 ft | 426 kts | 251° |
| 2026-04-27 15:06 | 33.85812 | -40.40979 | 38132 ft | 426 kts | 251° |
| 2026-04-27 15:06 | 33.83514 | -40.47566 | 38135 ft | 427 kts | 251° |
| 2026-04-27 15:07 | 33.81213 | -40.54151 | 38129 ft | 427 kts | 251° |
| 2026-04-27 15:07 | 33.78908 | -40.60730 | 38138 ft | 426 kts | 251° |
| 2026-04-27 15:08 | 33.76603 | -40.67298 | 38135 ft | 426 kts | 251° |
| 2026-04-27 15:08 | 33.74309 | -40.73819 | 38136 ft | 426 kts | 251° |
| 2026-04-27 15:09 | 33.72002 | -40.80366 | 38135 ft | 426 kts | 251° |
| 2026-04-27 15:09 | 33.69689 | -40.86915 | 38135 ft | 426 kts | 251° |
| 2026-04-27 15:10 | 33.67371 | -40.93467 | 38136 ft | 426 kts | 251° |
| 2026-04-27 15:10 | 33.65049 | -41.00018 | 38130 ft | 426 kts | 251° |
| 2026-04-27 15:11 | 33.62724 | -41.06559 | 38133 ft | 426 kts | 251° |
| 2026-04-27 15:11 | 33.60397 | -41.13097 | 38145 ft | 426 kts | 251° |
| 2026-04-27 15:12 | 33.58062 | -41.19643 | 38141 ft | 426 kts | 251° |
| 2026-04-27 15:12 | 33.55725 | -41.26181 | 38143 ft | 426 kts | 251° |
| 2026-04-27 15:13 | 33.53402 | -41.32666 | 38142 ft | 426 kts | 251° |
| 2026-04-27 15:13 | 33.51058 | -41.39199 | 38149 ft | 426 kts | 251° |
| 2026-04-27 15:14 | 33.48717 | -41.45708 | 38146 ft | 425 kts | 251° |
| 2026-04-27 15:14 | 33.46375 | -41.52209 | 38142 ft | 425 kts | 250° |
| 2026-04-27 15:15 | 33.44425 | -41.57609 | 38147 ft | 425 kts | 250° |
| 2026-04-27 15:15 | 33.42074 | -41.64112 | 38140 ft | 425 kts | 250° |
| 2026-04-27 15:16 | 33.39718 | -41.70613 | 38145 ft | 426 kts | 250° |
| 2026-04-27 15:16 | 33.37361 | -41.77106 | 38143 ft | 425 kts | 250° |
| 2026-04-27 15:17 | 33.35001 | -41.83592 | 38143 ft | 425 kts | 250° |
| 2026-04-27 15:17 | 33.32641 | -41.90068 | 38142 ft | 425 kts | 250° |
| 2026-04-27 15:18 | 33.30291 | -41.96504 | 38143 ft | 425 kts | 250° |
| 2026-04-27 15:18 | 33.27920 | -42.02982 | 38148 ft | 425 kts | 250° |
| 2026-04-27 15:19 | 33.25547 | -42.09456 | 38150 ft | 425 kts | 250° |
| 2026-04-27 15:19 | 33.23166 | -42.15936 | 38148 ft | 426 kts | 250° |
| 2026-04-27 15:20 | 33.20782 | -42.22412 | 38151 ft | 425 kts | 250° |
| 2026-04-27 15:20 | 33.18410 | -42.28844 | 38149 ft | 426 kts | 250° |
| 2026-04-27 15:21 | 33.16022 | -42.35308 | 38151 ft | 426 kts | 250° |
| 2026-04-27 15:21 | 33.13629 | -42.41770 | 38155 ft | 425 kts | 250° |
| 2026-04-27 15:22 | 33.11233 | -42.48230 | 38151 ft | 426 kts | 250° |
| 2026-04-27 15:22 | 33.08831 | -42.54694 | 38157 ft | 426 kts | 250° |
| 2026-04-27 15:23 | 33.06424 | -42.61157 | 38155 ft | 427 kts | 250° |
| 2026-04-27 15:23 | 33.04014 | -42.67616 | 38157 ft | 427 kts | 250° |
| 2026-04-27 15:24 | 33.01600 | -42.74073 | 38161 ft | 426 kts | 250° |
| 2026-04-27 15:24 | 32.99183 | -42.80525 | 38159 ft | 426 kts | 250° |
| 2026-04-27 15:25 | 32.96779 | -42.86932 | 38163 ft | 426 kts | 250° |
| 2026-04-27 15:25 | 32.94354 | -42.93383 | 38163 ft | 427 kts | 250° |
| 2026-04-27 15:26 | 32.91922 | -42.99838 | 38165 ft | 427 kts | 250° |
| 2026-04-27 15:26 | 32.89488 | -43.06288 | 38164 ft | 427 kts | 250° |
| 2026-04-27 15:27 | 32.87048 | -43.12741 | 38162 ft | 427 kts | 250° |
| 2026-04-27 15:27 | 32.84604 | -43.19190 | 38161 ft | 427 kts | 250° |
| 2026-04-27 15:28 | 32.82174 | -43.25592 | 38167 ft | 427 kts | 250° |
| 2026-04-27 15:28 | 32.79723 | -43.32038 | 38168 ft | 427 kts | 250° |
| 2026-04-27 15:29 | 32.77272 | -43.38470 | 38166 ft | 427 kts | 250° |
| 2026-04-27 15:29 | 32.74814 | -43.44909 | 38167 ft | 428 kts | 250° |
| 2026-04-27 15:30 | 32.72353 | -43.51343 | 38171 ft | 428 kts | 250° |
| 2026-04-27 15:30 | 32.69884 | -43.57788 | 38176 ft | 428 kts | 249° |
| 2026-04-27 15:31 | 32.67413 | -43.64223 | 38173 ft | 428 kts | 249° |
| 2026-04-27 15:31 | 32.64954 | -43.70617 | 38176 ft | 428 kts | 249° |
| 2026-04-27 15:32 | 32.62478 | -43.77041 | 38182 ft | 428 kts | 249° |
| 2026-04-27 15:32 | 32.59999 | -43.83462 | 38186 ft | 428 kts | 249° |
| 2026-04-27 15:33 | 32.57519 | -43.89875 | 38177 ft | 428 kts | 249° |
| 2026-04-27 15:33 | 32.55029 | -43.96300 | 38176 ft | 428 kts | 249° |
| 2026-04-27 15:34 | 32.52540 | -44.02711 | 38175 ft | 429 kts | 249° |
| 2026-04-27 15:34 | 32.50045 | -44.09126 | 38184 ft | 429 kts | 249° |
| 2026-04-27 15:35 | 32.47545 | -44.15542 | 38183 ft | 429 kts | 249° |
| 2026-04-27 15:35 | 32.45040 | -44.21958 | 38185 ft | 429 kts | 249° |
| 2026-04-27 15:36 | 32.42544 | -44.28338 | 38186 ft | 430 kts | 249° |
| 2026-04-27 15:36 | 32.40028 | -44.34760 | 38185 ft | 430 kts | 249° |
| 2026-04-27 15:37 | 32.37505 | -44.41187 | 38185 ft | 430 kts | 249° |
| 2026-04-27 15:37 | 32.34980 | -44.47605 | 38193 ft | 430 kts | 249° |
| 2026-04-27 15:38 | 32.32449 | -44.54029 | 38190 ft | 430 kts | 249° |
| 2026-04-27 15:38 | 32.29914 | -44.60449 | 38187 ft | 431 kts | 249° |
| 2026-04-27 15:39 | 32.27394 | -44.66822 | 38191 ft | 431 kts | 249° |
| 2026-04-27 15:39 | 32.24853 | -44.73234 | 38191 ft | 431 kts | 249° |
| 2026-04-27 15:40 | 32.22309 | -44.79645 | 38193 ft | 431 kts | 249° |
| 2026-04-27 15:40 | 32.19766 | -44.86037 | 38203 ft | 429 kts | 249° |
| 2026-04-27 15:41 | 32.17226 | -44.92415 | 38197 ft | 430 kts | 249° |
| 2026-04-27 15:41 | 32.14679 | -44.98796 | 38199 ft | 430 kts | 249° |
| 2026-04-27 15:42 | 32.12145 | -45.05133 | 38198 ft | 429 kts | 249° |
| 2026-04-27 15:42 | 32.09592 | -45.11506 | 38200 ft | 430 kts | 249° |
| 2026-04-27 15:43 | 32.07036 | -45.17877 | 38200 ft | 430 kts | 249° |
| 2026-04-27 15:43 | 32.04477 | -45.24241 | 38199 ft | 429 kts | 249° |
| 2026-04-27 15:44 | 32.01919 | -45.30594 | 38204 ft | 429 kts | 249° |
| 2026-04-27 15:44 | 31.99355 | -45.36949 | 38198 ft | 429 kts | 249° |
| 2026-04-27 15:45 | 31.96786 | -45.43304 | 38202 ft | 430 kts | 249° |
| 2026-04-27 15:45 | 31.94209 | -45.49667 | 38203 ft | 430 kts | 249° |
| 2026-04-27 15:46 | 31.91647 | -45.55986 | 38203 ft | 430 kts | 249° |
| 2026-04-27 15:46 | 31.89064 | -45.62340 | 38203 ft | 430 kts | 249° |
| 2026-04-27 15:47 | 31.86481 | -45.68687 | 38207 ft | 430 kts | 249° |
| 2026-04-27 15:47 | 31.83893 | -45.75033 | 38206 ft | 430 kts | 249° |
| 2026-04-27 15:48 | 31.81293 | -45.81397 | 38208 ft | 430 kts | 249° |
| 2026-04-27 15:49 | 31.77417 | -45.90864 | 38215 ft | 430 kts | 249° |
| 2026-04-27 15:49 | 31.74819 | -45.97193 | 38212 ft | 430 kts | 249° |
| 2026-04-27 15:50 | 31.72217 | -46.03523 | 38210 ft | 430 kts | 249° |
| 2026-04-27 15:50 | 31.69595 | -46.09891 | 38213 ft | 430 kts | 248° |
| 2026-04-27 15:51 | 31.67003 | -46.16175 | 38219 ft | 431 kts | 248° |
| 2026-04-27 15:51 | 31.64387 | -46.22505 | 38215 ft | 432 kts | 248° |
| 2026-04-27 15:52 | 31.61763 | -46.28842 | 38216 ft | 432 kts | 248° |
| 2026-04-27 15:52 | 31.59136 | -46.35179 | 38223 ft | 432 kts | 248° |
| 2026-04-27 15:53 | 31.56503 | -46.41516 | 38218 ft | 432 kts | 248° |
| 2026-04-27 15:53 | 31.53868 | -46.47847 | 38213 ft | 432 kts | 248° |
| 2026-04-27 15:54 | 31.51229 | -46.54179 | 38216 ft | 432 kts | 248° |
| 2026-04-27 15:54 | 31.48590 | -46.60499 | 38220 ft | 432 kts | 248° |
| 2026-04-27 15:55 | 31.45944 | -46.66822 | 38221 ft | 432 kts | 248° |
| 2026-04-27 15:55 | 31.43295 | -46.73144 | 38219 ft | 432 kts | 248° |
| 2026-04-27 15:56 | 31.40658 | -46.79424 | 38243 ft | 433 kts | 248° |
| 2026-04-27 15:56 | 31.38001 | -46.85743 | 38220 ft | 432 kts | 248° |
| 2026-04-27 15:57 | 31.35337 | -46.92069 | 38231 ft | 433 kts | 248° |
| 2026-04-27 15:57 | 31.32674 | -46.98378 | 38226 ft | 432 kts | 248° |
| 2026-04-27 15:58 | 31.30010 | -47.04680 | 38215 ft | 433 kts | 248° |
| 2026-04-27 15:58 | 31.27353 | -47.10957 | 38222 ft | 433 kts | 248° |
| 2026-04-27 15:59 | 31.24674 | -47.17271 | 38226 ft | 433 kts | 248° |
| 2026-04-27 15:59 | 31.21995 | -47.23576 | 38228 ft | 433 kts | 248° |
| 2026-04-27 16:00 | 31.19310 | -47.29886 | 38228 ft | 433 kts | 248° |
| 2026-04-27 16:00 | 31.16646 | -47.36134 | 38222 ft | 432 kts | 248° |
| 2026-04-27 16:01 | 31.13963 | -47.42415 | 38224 ft | 432 kts | 248° |
| 2026-04-27 16:01 | 31.11276 | -47.48698 | 38232 ft | 433 kts | 248° |
| 2026-04-27 16:02 | 31.08587 | -47.54971 | 38228 ft | 432 kts | 248° |
| 2026-04-27 16:02 | 31.05900 | -47.61232 | 38244 ft | 432 kts | 248° |
| 2026-04-27 16:03 | 31.03203 | -47.67505 | 38240 ft | 432 kts | 248° |
| 2026-04-27 16:03 | 31.00962 | -47.72707 | 38243 ft | 431 kts | 248° |
| 2026-04-27 16:04 | 30.98272 | -47.78944 | 38231 ft | 430 kts | 248° |
| 2026-04-27 16:04 | 30.95587 | -47.85160 | 38236 ft | 430 kts | 248° |
| 2026-04-27 16:05 | 30.92896 | -47.91378 | 38234 ft | 430 kts | 248° |
| 2026-04-27 16:05 | 30.90201 | -47.97596 | 38233 ft | 430 kts | 248° |
| 2026-04-27 16:06 | 30.87506 | -48.03802 | 38230 ft | 429 kts | 248° |
| 2026-04-27 16:06 | 30.84810 | -48.10001 | 38232 ft | 429 kts | 247° |
| 2026-04-27 16:07 | 30.82114 | -48.16189 | 38230 ft | 428 kts | 247° |
| 2026-04-27 16:07 | 30.79417 | -48.22371 | 38234 ft | 428 kts | 247° |
| 2026-04-27 16:08 | 30.76736 | -48.28505 | 38232 ft | 428 kts | 247° |
| 2026-04-27 16:08 | 30.74033 | -48.34680 | 38234 ft | 428 kts | 247° |
| 2026-04-27 16:09 | 30.71334 | -48.40832 | 38233 ft | 426 kts | 247° |
| 2026-04-27 16:09 | 30.67297 | -48.50021 | 38234 ft | 425 kts | 247° |
| 2026-04-27 16:10 | 30.61915 | -48.62235 | 38232 ft | 426 kts | 247° |
| 2026-04-27 16:11 | 30.57865 | -48.71400 | 38241 ft | 426 kts | 247° |
| 2026-04-27 16:12 | 30.53808 | -48.80558 | 38238 ft | 425 kts | 247° |
| 2026-04-27 16:13 | 30.49747 | -48.89703 | 38230 ft | 424 kts | 247° |
| 2026-04-27 16:13 | 30.45688 | -48.98825 | 38240 ft | 424 kts | 247° |
| 2026-04-27 16:14 | 30.40286 | -49.10926 | 38237 ft | 424 kts | 247° |
| 2026-04-27 16:15 | 30.34859 | -49.23047 | 38242 ft | 423 kts | 247° |
| 2026-04-27 16:16 | 30.29430 | -49.35133 | 38243 ft | 423 kts | 247° |
| 2026-04-27 16:17 | 30.24000 | -49.47183 | 38243 ft | 422 kts | 247° |
| 2026-04-27 16:18 | 30.18574 | -49.59189 | 38243 ft | 422 kts | 247° |
| 2026-04-27 16:19 | 30.15852 | -49.65195 | 38241 ft | 421 kts | 247° |
| 2026-04-27 16:20 | 30.10417 | -49.77165 | 38242 ft | 421 kts | 247° |
| 2026-04-27 16:21 | 30.06331 | -49.86136 | 38615 ft | 419 kts | 247° |
| 2026-04-27 16:21 | 30.02279 | -49.95016 | 39252 ft | 420 kts | 247° |
| 2026-04-27 16:22 | 30.00911 | -49.98010 | 39247 ft | 421 kts | 247° |
| 2026-04-27 16:22 | 29.96939 | -50.06929 | 39242 ft | 414 kts | 248° |
| 2026-04-27 16:23 | 29.92999 | -50.15804 | 39245 ft | 414 kts | 248° |
| 2026-04-27 16:24 | 29.90381 | -50.21719 | 39244 ft | 414 kts | 248° |
| 2026-04-27 16:25 | 29.85149 | -50.33474 | 39249 ft | 413 kts | 248° |
| 2026-04-27 16:26 | 29.79891 | -50.45257 | 39249 ft | 413 kts | 248° |
| 2026-04-27 16:27 | 29.74626 | -50.57020 | 39249 ft | 413 kts | 248° |
| 2026-04-27 16:28 | 29.68034 | -50.71697 | 39242 ft | 413 kts | 248° |
| 2026-04-27 16:29 | 29.61450 | -50.86301 | 39248 ft | 410 kts | 248° |
| 2026-04-27 16:30 | 29.56210 | -50.97886 | 39252 ft | 409 kts | 248° |
| 2026-04-27 16:31 | 29.49641 | -51.12360 | 39262 ft | 408 kts | 247° |
| 2026-04-27 16:32 | 29.45696 | -51.21027 | 39258 ft | 408 kts | 247° |
| 2026-04-27 16:33 | 29.41754 | -51.29669 | 39257 ft | 407 kts | 247° |
| 2026-04-27 16:33 | 29.39126 | -51.35417 | 39187 ft | 407 kts | 248° |
| 2026-04-27 16:34 | 29.36476 | -51.41214 | 39247 ft | 414 kts | 247° |
| 2026-04-27 16:34 | 29.33794 | -51.47057 | 39247 ft | 414 kts | 247° |
| 2026-04-27 16:35 | 29.31119 | -51.52890 | 39249 ft | 413 kts | 247° |
| 2026-04-27 16:36 | 29.27122 | -51.61581 | 39244 ft | 412 kts | 247° |
| 2026-04-27 16:36 | 29.24447 | -51.67386 | 39241 ft | 412 kts | 247° |
| 2026-04-27 16:37 | 29.21769 | -51.73191 | 39245 ft | 412 kts | 247° |
| 2026-04-27 16:37 | 29.19088 | -51.78993 | 39237 ft | 412 kts | 247° |
| 2026-04-27 16:38 | 29.16408 | -51.84784 | 39242 ft | 412 kts | 247° |
| 2026-04-27 16:38 | 29.13727 | -51.90570 | 39238 ft | 411 kts | 247° |
| 2026-04-27 16:39 | 29.11061 | -51.96315 | 39239 ft | 411 kts | 247° |
| 2026-04-27 16:39 | 29.08384 | -52.02076 | 39237 ft | 410 kts | 247° |
| 2026-04-27 16:40 | 29.05713 | -52.07815 | 39239 ft | 408 kts | 247° |
| 2026-04-27 16:40 | 29.03039 | -52.13553 | 39239 ft | 409 kts | 247° |
| 2026-04-27 16:41 | 29.00356 | -52.19300 | 39238 ft | 410 kts | 247° |
| 2026-04-27 16:41 | 28.97671 | -52.25047 | 39245 ft | 410 kts | 247° |
| 2026-04-27 16:42 | 28.94986 | -52.30782 | 39240 ft | 409 kts | 247° |
| 2026-04-27 16:42 | 28.92296 | -52.36520 | 39237 ft | 409 kts | 247° |
| 2026-04-27 16:43 | 28.89605 | -52.42253 | 39240 ft | 410 kts | 247° |
| 2026-04-27 16:43 | 28.86929 | -52.47947 | 39237 ft | 409 kts | 247° |
| 2026-04-27 16:44 | 28.84236 | -52.53666 | 39231 ft | 409 kts | 247° |
| 2026-04-27 16:44 | 28.81542 | -52.59383 | 39232 ft | 409 kts | 247° |
| 2026-04-27 16:45 | 28.78848 | -52.65089 | 39235 ft | 408 kts | 247° |
| 2026-04-27 16:45 | 28.76159 | -52.70777 | 39234 ft | 407 kts | 247° |
| 2026-04-27 16:46 | 28.73471 | -52.76455 | 39233 ft | 406 kts | 247° |
| 2026-04-27 16:46 | 28.70789 | -52.82112 | 39232 ft | 406 kts | 247° |
| 2026-04-27 16:47 | 28.68103 | -52.87770 | 39230 ft | 405 kts | 247° |
| 2026-04-27 16:47 | 28.65419 | -52.93419 | 39230 ft | 406 kts | 247° |
| 2026-04-27 16:48 | 28.62729 | -52.99068 | 39236 ft | 406 kts | 247° |
| 2026-04-27 16:48 | 28.60039 | -53.04711 | 39230 ft | 406 kts | 247° |
| 2026-04-27 16:49 | 28.56020 | -53.13127 | 39224 ft | 405 kts | 247° |
| 2026-04-27 16:49 | 28.53328 | -53.18756 | 39229 ft | 405 kts | 247° |
| 2026-04-27 16:50 | 28.50632 | -53.24385 | 39252 ft | 405 kts | 247° |
| 2026-04-27 16:50 | 28.47935 | -53.30009 | 39242 ft | 405 kts | 247° |
| 2026-04-27 16:51 | 28.45690 | -53.34682 | 39235 ft | 405 kts | 247° |
| 2026-04-27 16:51 | 28.42550 | -53.41211 | 39244 ft | 404 kts | 247° |
| 2026-04-27 16:52 | 28.40293 | -53.45899 | 39231 ft | 403 kts | 247° |
| 2026-04-27 16:52 | 28.37602 | -53.51480 | 39239 ft | 403 kts | 247° |
| 2026-04-27 16:53 | 28.34923 | -53.57029 | 39229 ft | 403 kts | 247° |
| 2026-04-27 16:53 | 28.32220 | -53.62621 | 39237 ft | 404 kts | 246° |
| 2026-04-27 16:54 | 28.29518 | -53.68201 | 39232 ft | 403 kts | 246° |
| 2026-04-27 16:54 | 28.26817 | -53.73773 | 39229 ft | 403 kts | 246° |
| 2026-04-27 16:55 | 28.24114 | -53.79343 | 39228 ft | 403 kts | 246° |
| 2026-04-27 16:55 | 28.21409 | -53.84908 | 39225 ft | 403 kts | 246° |
| 2026-04-27 16:56 | 28.18700 | -53.90473 | 39225 ft | 403 kts | 246° |
| 2026-04-27 16:56 | 28.15993 | -53.96028 | 39222 ft | 403 kts | 246° |
| 2026-04-27 16:57 | 28.13284 | -54.01579 | 39225 ft | 402 kts | 246° |
| 2026-04-27 16:57 | 28.10589 | -54.07094 | 39220 ft | 402 kts | 246° |
| 2026-04-27 16:58 | 28.07883 | -54.12625 | 39215 ft | 402 kts | 246° |
| 2026-04-27 16:58 | 28.05169 | -54.18165 | 39217 ft | 402 kts | 246° |
| 2026-04-27 16:59 | 28.02455 | -54.23697 | 39221 ft | 402 kts | 246° |
| 2026-04-27 16:59 | 27.99737 | -54.29228 | 39218 ft | 402 kts | 246° |
| 2026-04-27 17:00 | 27.95656 | -54.37523 | 39218 ft | 402 kts | 246° |
| 2026-04-27 17:01 | 27.92934 | -54.43045 | 39218 ft | 402 kts | 246° |
| 2026-04-27 17:01 | 27.90211 | -54.48564 | 39214 ft | 402 kts | 246° |
| 2026-04-27 17:02 | 27.87485 | -54.54080 | 39217 ft | 401 kts | 246° |
| 2026-04-27 17:02 | 27.84775 | -54.59556 | 39221 ft | 401 kts | 246° |
| 2026-04-27 17:03 | 27.82043 | -54.65071 | 39217 ft | 403 kts | 246° |
| 2026-04-27 17:03 | 27.79301 | -54.70596 | 39216 ft | 403 kts | 246° |
| 2026-04-27 17:04 | 27.76563 | -54.76110 | 39211 ft | 402 kts | 246° |
| 2026-04-27 17:04 | 27.73821 | -54.81622 | 39209 ft | 402 kts | 246° |
| 2026-04-27 17:05 | 27.71080 | -54.87126 | 39211 ft | 402 kts | 246° |
| 2026-04-27 17:05 | 27.68334 | -54.92633 | 39207 ft | 403 kts | 246° |
| 2026-04-27 17:06 | 27.65579 | -54.98149 | 39207 ft | 402 kts | 245° |
| 2026-04-27 17:06 | 27.62831 | -55.03647 | 39204 ft | 402 kts | 245° |
| 2026-04-27 17:07 | 27.60093 | -55.09114 | 39203 ft | 403 kts | 245° |
| 2026-04-27 17:07 | 27.57338 | -55.14612 | 39203 ft | 403 kts | 245° |
| 2026-04-27 17:08 | 27.54581 | -55.20105 | 39203 ft | 403 kts | 245° |
| 2026-04-27 17:08 | 27.51818 | -55.25601 | 39201 ft | 403 kts | 245° |
| 2026-04-27 17:09 | 27.49057 | -55.31089 | 39200 ft | 403 kts | 245° |
| 2026-04-27 17:09 | 27.46293 | -55.36574 | 39200 ft | 403 kts | 245° |
| 2026-04-27 17:10 | 27.43540 | -55.42031 | 39198 ft | 403 kts | 245° |
| 2026-04-27 17:10 | 27.40772 | -55.47510 | 39200 ft | 403 kts | 245° |
| 2026-04-27 17:11 | 27.38003 | -55.52985 | 39195 ft | 402 kts | 245° |
| 2026-04-27 17:11 | 27.33849 | -55.61185 | 39195 ft | 402 kts | 245° |
| 2026-04-27 17:12 | 27.29688 | -55.69383 | 39203 ft | 402 kts | 245° |
| 2026-04-27 17:13 | 27.26914 | -55.74840 | 39211 ft | 402 kts | 245° |
| 2026-04-27 17:13 | 27.24136 | -55.80298 | 39209 ft | 402 kts | 245° |
| 2026-04-27 17:14 | 27.21355 | -55.85754 | 39206 ft | 402 kts | 245° |
| 2026-04-27 17:14 | 27.18574 | -55.91205 | 39203 ft | 402 kts | 245° |
| 2026-04-27 17:15 | 27.15787 | -55.96659 | 39197 ft | 403 kts | 245° |
| 2026-04-27 17:15 | 27.13002 | -56.02104 | 39191 ft | 402 kts | 245° |
| 2026-04-27 17:16 | 27.10209 | -56.07557 | 39192 ft | 403 kts | 245° |
| 2026-04-27 17:16 | 27.07413 | -56.13009 | 39193 ft | 403 kts | 244° |
| 2026-04-27 17:17 | 27.04615 | -56.18458 | 39191 ft | 403 kts | 244° |
| 2026-04-27 17:17 | 27.01816 | -56.23902 | 39189 ft | 403 kts | 244° |
| 2026-04-27 17:18 | 26.97628 | -56.32036 | 39181 ft | 403 kts | 244° |
| 2026-04-27 17:18 | 26.94825 | -56.37470 | 39186 ft | 403 kts | 244° |
| 2026-04-27 17:19 | 26.92018 | -56.42907 | 39185 ft | 403 kts | 244° |
| 2026-04-27 17:19 | 26.89207 | -56.48343 | 39185 ft | 403 kts | 244° |
| 2026-04-27 17:20 | 26.86392 | -56.53782 | 39183 ft | 403 kts | 244° |
| 2026-04-27 17:20 | 26.83577 | -56.59213 | 39197 ft | 404 kts | 244° |
| 2026-04-27 17:21 | 26.80755 | -56.64652 | 39191 ft | 404 kts | 244° |
| 2026-04-27 17:21 | 26.77928 | -56.70093 | 39188 ft | 404 kts | 244° |
| 2026-04-27 17:22 | 26.75098 | -56.75533 | 39188 ft | 404 kts | 244° |
| 2026-04-27 17:22 | 26.72282 | -56.80939 | 39175 ft | 405 kts | 244° |
| 2026-04-27 17:23 | 26.69445 | -56.86380 | 39175 ft | 405 kts | 244° |
| 2026-04-27 17:23 | 26.66605 | -56.91818 | 39173 ft | 405 kts | 244° |
| 2026-04-27 17:24 | 26.63764 | -56.97253 | 39176 ft | 405 kts | 244° |
| 2026-04-27 17:24 | 26.60925 | -57.02677 | 39170 ft | 404 kts | 244° |
| 2026-04-27 17:25 | 26.58087 | -57.08094 | 39167 ft | 404 kts | 244° |
| 2026-04-27 17:25 | 26.55248 | -57.13504 | 39161 ft | 403 kts | 244° |
| 2026-04-27 17:26 | 26.52409 | -57.18909 | 39162 ft | 403 kts | 244° |
| 2026-04-27 17:26 | 26.49568 | -57.24311 | 39156 ft | 403 kts | 244° |
| 2026-04-27 17:27 | 26.46743 | -57.29676 | 39160 ft | 403 kts | 244° |
| 2026-04-27 17:27 | 26.43898 | -57.35071 | 39154 ft | 403 kts | 244° |
| 2026-04-27 17:28 | 26.41051 | -57.40464 | 39152 ft | 403 kts | 244° |
| 2026-04-27 17:29 | 26.36781 | -57.48541 | 39151 ft | 403 kts | 244° |
| 2026-04-27 17:29 | 26.33937 | -57.53912 | 39154 ft | 401 kts | 244° |
| 2026-04-27 17:30 | 26.31092 | -57.59280 | 39153 ft | 403 kts | 244° |
| 2026-04-27 17:30 | 26.26810 | -57.67347 | 39151 ft | 403 kts | 243° |
| 2026-04-27 17:31 | 26.23945 | -57.72735 | 39147 ft | 404 kts | 243° |
| 2026-04-27 17:31 | 26.21084 | -57.78110 | 39144 ft | 404 kts | 243° |
| 2026-04-27 17:32 | 26.16802 | -57.86142 | 39141 ft | 403 kts | 243° |
| 2026-04-27 17:33 | 26.13947 | -57.91490 | 39138 ft | 401 kts | 243° |
| 2026-04-27 17:33 | 26.11092 | -57.96831 | 39139 ft | 402 kts | 243° |
| 2026-04-27 17:34 | 26.08224 | -58.02189 | 39139 ft | 403 kts | 243° |
| 2026-04-27 17:34 | 26.05356 | -58.07543 | 39139 ft | 403 kts | 243° |
| 2026-04-27 17:35 | 26.02484 | -58.12897 | 39128 ft | 403 kts | 243° |
| 2026-04-27 17:35 | 26.00094 | -58.17345 | 39141 ft | 404 kts | 243° |
| 2026-04-27 17:36 | 25.97213 | -58.22709 | 39146 ft | 404 kts | 243° |
| 2026-04-27 17:36 | 25.94325 | -58.28072 | 39141 ft | 404 kts | 243° |
| 2026-04-27 17:37 | 25.91439 | -58.33431 | 39138 ft | 404 kts | 243° |
| 2026-04-27 17:37 | 25.88548 | -58.38788 | 39132 ft | 404 kts | 243° |
| 2026-04-27 17:38 | 25.85660 | -58.44137 | 39133 ft | 403 kts | 243° |
| 2026-04-27 17:38 | 25.82770 | -58.49482 | 39126 ft | 404 kts | 243° |
| 2026-04-27 17:39 | 25.79895 | -58.54791 | 39126 ft | 404 kts | 243° |
| 2026-04-27 17:39 | 25.77001 | -58.60132 | 39120 ft | 404 kts | 243° |
| 2026-04-27 17:40 | 25.74103 | -58.65473 | 39122 ft | 404 kts | 243° |
| 2026-04-27 17:40 | 25.71200 | -58.70817 | 39122 ft | 404 kts | 243° |
| 2026-04-27 17:41 | 25.68297 | -58.76153 | 39119 ft | 404 kts | 243° |
| 2026-04-27 17:41 | 25.65393 | -58.81488 | 39114 ft | 405 kts | 243° |
| 2026-04-27 17:42 | 25.62480 | -58.86830 | 39117 ft | 405 kts | 243° |
| 2026-04-27 17:42 | 25.59567 | -58.92168 | 39132 ft | 404 kts | 243° |
| 2026-04-27 17:43 | 25.56671 | -58.97469 | 39132 ft | 404 kts | 243° |
| 2026-04-27 17:43 | 25.53756 | -59.02798 | 39128 ft | 404 kts | 242° |
| 2026-04-27 17:44 | 25.50840 | -59.08122 | 39128 ft | 404 kts | 242° |
| 2026-04-27 17:44 | 25.47919 | -59.13451 | 39130 ft | 405 kts | 242° |
| 2026-04-27 17:45 | 25.44989 | -59.18789 | 39127 ft | 406 kts | 242° |
| 2026-04-27 17:45 | 25.42059 | -59.24120 | 39124 ft | 405 kts | 242° |
| 2026-04-27 17:46 | 25.39124 | -59.29455 | 39120 ft | 406 kts | 242° |
| 2026-04-27 17:46 | 25.36189 | -59.34784 | 39116 ft | 405 kts | 242° |
| 2026-04-27 17:47 | 25.33255 | -59.40105 | 39107 ft | 406 kts | 242° |
| 2026-04-27 17:47 | 25.30334 | -59.45396 | 39105 ft | 405 kts | 242° |
| 2026-04-27 17:48 | 25.27396 | -59.50714 | 39102 ft | 405 kts | 242° |
| 2026-04-27 17:48 | 25.24453 | -59.56033 | 39100 ft | 406 kts | 242° |
| 2026-04-27 17:49 | 25.21505 | -59.61355 | 39102 ft | 405 kts | 242° |
| 2026-04-27 17:49 | 25.18576 | -59.66637 | 39099 ft | 406 kts | 242° |
| 2026-04-27 17:50 | 25.15627 | -59.71949 | 39101 ft | 406 kts | 242° |
| 2026-04-27 17:50 | 25.11200 | -59.79912 | 39094 ft | 406 kts | 242° |
| 2026-04-27 17:51 | 25.08243 | -59.85224 | 39093 ft | 406 kts | 242° |
| 2026-04-27 17:51 | 25.05292 | -59.90533 | 39088 ft | 405 kts | 242° |
| 2026-04-27 17:52 | 25.02323 | -59.95838 | 39105 ft | 407 kts | 241° |
| 2026-04-27 17:52 | 24.99374 | -60.01162 | 39116 ft | 406 kts | 243° |
| 2026-04-27 17:53 | 24.96508 | -60.06509 | 39102 ft | 407 kts | 242° |
| 2026-04-27 17:53 | 24.93619 | -60.11879 | 39098 ft | 407 kts | 242° |
| 2026-04-27 17:54 | 24.90732 | -60.17250 | 39103 ft | 407 kts | 242° |
| 2026-04-27 17:54 | 24.87835 | -60.22626 | 39109 ft | 408 kts | 242° |
| 2026-04-27 17:55 | 24.84940 | -60.27996 | 39105 ft | 408 kts | 242° |
| 2026-04-27 17:55 | 24.82040 | -60.33368 | 39097 ft | 408 kts | 242° |
| 2026-04-27 17:56 | 24.79140 | -60.38735 | 39091 ft | 408 kts | 242° |
| 2026-04-27 17:56 | 24.76236 | -60.44101 | 39091 ft | 408 kts | 242° |
| 2026-04-27 17:57 | 24.73351 | -60.49429 | 39090 ft | 408 kts | 242° |
| 2026-04-27 17:57 | 24.70443 | -60.54792 | 39098 ft | 408 kts | 242° |
| 2026-04-27 17:58 | 24.67530 | -60.60157 | 39093 ft | 409 kts | 242° |
| 2026-04-27 17:58 | 24.64616 | -60.65518 | 39093 ft | 408 kts | 242° |
| 2026-04-27 17:59 | 24.61683 | -60.70909 | 39084 ft | 408 kts | 242° |
| 2026-04-27 17:59 | 24.58788 | -60.76225 | 39092 ft | 408 kts | 242° |
| 2026-04-27 18:00 | 24.55871 | -60.81575 | 39095 ft | 408 kts | 242° |
| 2026-04-27 18:00 | 24.52966 | -60.86897 | 39092 ft | 408 kts | 242° |
| 2026-04-27 18:01 | 24.50042 | -60.92247 | 39094 ft | 408 kts | 242° |
| 2026-04-27 18:01 | 24.47141 | -60.97550 | 39086 ft | 407 kts | 242° |
| 2026-04-27 18:02 | 24.44202 | -61.02915 | 39087 ft | 407 kts | 242° |
| 2026-04-27 18:02 | 24.41280 | -61.08245 | 39089 ft | 408 kts | 241° |
| 2026-04-27 18:03 | 24.38371 | -61.13544 | 39095 ft | 408 kts | 241° |
| 2026-04-27 18:03 | 24.35435 | -61.18886 | 39091 ft | 408 kts | 241° |
| 2026-04-27 18:04 | 24.32497 | -61.24227 | 39088 ft | 408 kts | 241° |
| 2026-04-27 18:04 | 24.29563 | -61.29555 | 39083 ft | 408 kts | 241° |
| 2026-04-27 18:05 | 24.26627 | -61.34881 | 39081 ft | 408 kts | 241° |
| 2026-04-27 18:05 | 24.23708 | -61.40168 | 39081 ft | 407 kts | 241° |
| 2026-04-27 18:06 | 24.20777 | -61.45475 | 39073 ft | 407 kts | 241° |
| 2026-04-27 18:06 | 24.17840 | -61.50784 | 39070 ft | 407 kts | 241° |
| 2026-04-27 18:07 | 24.14896 | -61.56101 | 39064 ft | 408 kts | 241° |
| 2026-04-27 18:07 | 24.11970 | -61.61379 | 39067 ft | 408 kts | 241° |
| 2026-04-27 18:08 | 24.09024 | -61.66688 | 39066 ft | 408 kts | 241° |
| 2026-04-27 18:08 | 24.06074 | -61.71999 | 39069 ft | 408 kts | 241° |
| 2026-04-27 18:09 | 24.03117 | -61.77316 | 39065 ft | 408 kts | 241° |
| 2026-04-27 18:09 | 24.00160 | -61.82626 | 39071 ft | 409 kts | 241° |
| 2026-04-27 18:10 | 23.97197 | -61.87944 | 39076 ft | 409 kts | 241° |
| 2026-04-27 18:10 | 23.94251 | -61.93223 | 39076 ft | 409 kts | 241° |
| 2026-04-27 18:11 | 23.91284 | -61.98535 | 39073 ft | 409 kts | 241° |
| 2026-04-27 18:11 | 23.88312 | -62.03851 | 39072 ft | 409 kts | 241° |
| 2026-04-27 18:12 | 23.85339 | -62.09161 | 39070 ft | 409 kts | 240° |
| 2026-04-27 18:12 | 23.82369 | -62.14462 | 39066 ft | 409 kts | 240° |
| 2026-04-27 18:13 | 23.79400 | -62.19755 | 39071 ft | 409 kts | 240° |
| 2026-04-27 18:13 | 23.76428 | -62.25048 | 39063 ft | 409 kts | 240° |
| 2026-04-27 18:14 | 23.73454 | -62.30339 | 39059 ft | 408 kts | 240° |
| 2026-04-27 18:14 | 23.70480 | -62.35624 | 39057 ft | 409 kts | 240° |
| 2026-04-27 18:15 | 23.67505 | -62.40905 | 39054 ft | 408 kts | 240° |
| 2026-04-27 18:15 | 23.64548 | -62.46149 | 39053 ft | 408 kts | 240° |
| 2026-04-27 18:16 | 23.61569 | -62.51427 | 39054 ft | 409 kts | 240° |
| 2026-04-27 18:16 | 23.58585 | -62.56707 | 39057 ft | 409 kts | 240° |
| 2026-04-27 18:17 | 23.55596 | -62.61991 | 39056 ft | 409 kts | 240° |
| 2026-04-27 18:17 | 23.52604 | -62.67274 | 39052 ft | 409 kts | 240° |
| 2026-04-27 18:18 | 23.49607 | -62.72560 | 39055 ft | 409 kts | 240° |
| 2026-04-27 18:18 | 23.46634 | -62.77799 | 39057 ft | 409 kts | 240° |
| 2026-04-27 18:19 | 23.43637 | -62.83075 | 39052 ft | 410 kts | 240° |
| 2026-04-27 18:19 | 23.40635 | -62.88354 | 39057 ft | 410 kts | 240° |
| 2026-04-27 18:20 | 23.37627 | -62.93638 | 39057 ft | 410 kts | 240° |
| 2026-04-27 18:20 | 23.34620 | -62.98915 | 39051 ft | 410 kts | 240° |
| 2026-04-27 18:21 | 23.31608 | -63.04195 | 39052 ft | 410 kts | 240° |
| 2026-04-27 18:21 | 23.29110 | -63.08570 | 39051 ft | 409 kts | 240° |
| 2026-04-27 18:22 | 23.25610 | -63.14693 | 39051 ft | 410 kts | 240° |
| 2026-04-27 18:22 | 23.23088 | -63.19101 | 39051 ft | 410 kts | 240° |
| 2026-04-27 18:23 | 23.20068 | -63.24373 | 39047 ft | 410 kts | 240° |
| 2026-04-27 18:23 | 23.17051 | -63.29637 | 39058 ft | 410 kts | 240° |
| 2026-04-27 18:24 | 23.14051 | -63.34864 | 39055 ft | 411 kts | 240° |
| 2026-04-27 18:24 | 23.11024 | -63.40132 | 39052 ft | 411 kts | 240° |
| 2026-04-27 18:25 | 23.07996 | -63.45399 | 39049 ft | 411 kts | 239° |
| 2026-04-27 18:25 | 23.04967 | -63.50661 | 39047 ft | 411 kts | 239° |
| 2026-04-27 18:26 | 23.01930 | -63.55930 | 39041 ft | 411 kts | 239° |
| 2026-04-27 18:26 | 22.98895 | -63.61192 | 39047 ft | 411 kts | 239° |
| 2026-04-27 18:27 | 22.95853 | -63.66461 | 39046 ft | 412 kts | 239° |
| 2026-04-27 18:27 | 22.92808 | -63.71727 | 39044 ft | 412 kts | 239° |
| 2026-04-27 18:28 | 22.89783 | -63.76956 | 39053 ft | 412 kts | 239° |
| 2026-04-27 18:28 | 22.86719 | -63.82245 | 39042 ft | 412 kts | 239° |
| 2026-04-27 18:29 | 22.83690 | -63.87470 | 39043 ft | 411 kts | 239° |
| 2026-04-27 18:29 | 22.80639 | -63.92728 | 39043 ft | 412 kts | 239° |
| 2026-04-27 18:30 | 22.77588 | -63.97979 | 39038 ft | 411 kts | 239° |
| 2026-04-27 18:30 | 22.74542 | -64.03216 | 39042 ft | 411 kts | 239° |
| 2026-04-27 18:31 | 22.71489 | -64.08459 | 39051 ft | 412 kts | 239° |
| 2026-04-27 18:31 | 22.68435 | -64.13701 | 39052 ft | 412 kts | 239° |
| 2026-04-27 18:32 | 22.65375 | -64.18947 | 39053 ft | 411 kts | 239° |
| 2026-04-27 18:32 | 22.62314 | -64.24189 | 39052 ft | 411 kts | 239° |
| 2026-04-27 18:33 | 22.59256 | -64.29422 | 39053 ft | 412 kts | 239° |
| 2026-04-27 18:33 | 22.56188 | -64.34665 | 39048 ft | 412 kts | 239° |
| 2026-04-27 18:34 | 22.53117 | -64.39909 | 39042 ft | 412 kts | 239° |
| 2026-04-27 18:34 | 22.50068 | -64.45110 | 39041 ft | 412 kts | 239° |
| 2026-04-27 18:35 | 22.46995 | -64.50347 | 39047 ft | 413 kts | 239° |
| 2026-04-27 18:35 | 22.43921 | -64.55580 | 39048 ft | 412 kts | 239° |
| 2026-04-27 18:36 | 22.40846 | -64.60809 | 39047 ft | 413 kts | 239° |
| 2026-04-27 18:36 | 22.37758 | -64.66057 | 39048 ft | 413 kts | 239° |
| 2026-04-27 18:37 | 22.34670 | -64.71298 | 39049 ft | 413 kts | 239° |
| 2026-04-27 18:37 | 22.31579 | -64.76539 | 39037 ft | 413 kts | 239° |
| 2026-04-27 18:38 | 22.28484 | -64.81783 | 39032 ft | 414 kts | 239° |
| 2026-04-27 18:38 | 22.25407 | -64.86990 | 39025 ft | 414 kts | 239° |
| 2026-04-27 18:39 | 22.22304 | -64.92236 | 39045 ft | 414 kts | 239° |
| 2026-04-27 18:39 | 22.19199 | -64.97480 | 39050 ft | 415 kts | 239° |
| 2026-04-27 18:40 | 22.16087 | -65.02731 | 39035 ft | 415 kts | 238° |
| 2026-04-27 18:40 | 22.12973 | -65.07982 | 39046 ft | 415 kts | 238° |
| 2026-04-27 18:41 | 22.09865 | -65.13208 | 39046 ft | 414 kts | 237° |
| 2026-04-27 18:41 | 22.06447 | -65.18209 | 39041 ft | 413 kts | 236° |
| 2026-04-27 18:42 | 22.03611 | -65.22354 | 39043 ft | 414 kts | 235° |
| 2026-04-27 18:42 | 21.99594 | -65.28173 | 39041 ft | 414 kts | 235° |
| 2026-04-27 18:43 | 21.96177 | -65.33134 | 39041 ft | 414 kts | 235° |
| 2026-04-27 18:43 | 21.92738 | -65.38116 | 39040 ft | 414 kts | 235° |
| 2026-04-27 18:44 | 21.89294 | -65.43103 | 39035 ft | 414 kts | 235° |
| 2026-04-27 18:44 | 21.85851 | -65.48083 | 39033 ft | 414 kts | 235° |
| 2026-04-27 18:45 | 21.82404 | -65.53065 | 39031 ft | 415 kts | 235° |
| 2026-04-27 18:45 | 21.78953 | -65.58047 | 39034 ft | 415 kts | 235° |
| 2026-04-27 18:46 | 21.75496 | -65.63035 | 39032 ft | 416 kts | 235° |
| 2026-04-27 18:46 | 21.72031 | -65.68029 | 39036 ft | 416 kts | 235° |
| 2026-04-27 18:47 | 21.68593 | -65.72978 | 39034 ft | 416 kts | 235° |
| 2026-04-27 18:47 | 21.65121 | -65.77973 | 39033 ft | 416 kts | 235° |
| 2026-04-27 18:48 | 21.61660 | -65.82948 | 39032 ft | 416 kts | 235° |
| 2026-04-27 18:48 | 21.58192 | -65.87928 | 39032 ft | 416 kts | 234° |
| 2026-04-27 18:49 | 21.54717 | -65.92913 | 39029 ft | 417 kts | 234° |
| 2026-04-27 18:49 | 21.51242 | -65.97893 | 39028 ft | 416 kts | 234° |
| 2026-04-27 18:50 | 21.47770 | -66.02867 | 39024 ft | 416 kts | 234° |
| 2026-04-27 18:50 | 21.44124 | -66.07684 | 39039 ft | 417 kts | 231° |
| 2026-04-27 18:51 | 21.40314 | -66.12406 | 39035 ft | 418 kts | 231° |
| 2026-04-27 18:51 | 21.36482 | -66.17111 | 39033 ft | 418 kts | 231° |
| 2026-04-27 18:52 | 21.32683 | -66.21786 | 39032 ft | 418 kts | 231° |
| 2026-04-27 18:53 | 21.26939 | -66.28838 | 39026 ft | 419 kts | 231° |
| 2026-04-27 18:53 | 21.23106 | -66.33543 | 39022 ft | 418 kts | 231° |
| 2026-04-27 18:54 | 21.19284 | -66.38227 | 39020 ft | 416 kts | 231° |
| 2026-04-27 18:54 | 21.15465 | -66.42906 | 39019 ft | 418 kts | 231° |
| 2026-04-27 18:55 | 21.11636 | -66.47592 | 39016 ft | 418 kts | 231° |
| 2026-04-27 18:55 | 21.07805 | -66.52277 | 39017 ft | 418 kts | 231° |
| 2026-04-27 18:56 | 21.03968 | -66.56965 | 39013 ft | 418 kts | 230° |
| 2026-04-27 18:56 | 21.00154 | -66.61620 | 39016 ft | 418 kts | 230° |
| 2026-04-27 18:57 | 20.96313 | -66.66305 | 39013 ft | 418 kts | 230° |
| 2026-04-27 18:57 | 20.92469 | -66.70989 | 39012 ft | 418 kts | 230° |
| 2026-04-27 18:58 | 20.88626 | -66.75669 | 39018 ft | 419 kts | 230° |
| 2026-04-27 18:58 | 20.84772 | -66.80357 | 39021 ft | 420 kts | 230° |
| 2026-04-27 18:59 | 20.80932 | -66.85025 | 39024 ft | 420 kts | 230° |
| 2026-04-27 18:59 | 20.77071 | -66.89715 | 39025 ft | 420 kts | 230° |
| 2026-04-27 19:00 | 20.73204 | -66.94407 | 39028 ft | 421 kts | 230° |
| 2026-04-27 19:00 | 20.69323 | -66.99113 | 39031 ft | 421 kts | 230° |
| 2026-04-27 19:01 | 20.65451 | -67.03804 | 39028 ft | 422 kts | 230° |
| 2026-04-27 19:01 | 20.61556 | -67.08519 | 39031 ft | 423 kts | 230° |
| 2026-04-27 19:02 | 20.57696 | -67.13187 | 39023 ft | 422 kts | 230° |
| 2026-04-27 19:02 | 20.53810 | -67.17883 | 39027 ft | 422 kts | 230° |
| 2026-04-27 19:03 | 20.49909 | -67.22593 | 39021 ft | 423 kts | 230° |
| 2026-04-27 19:03 | 20.46005 | -67.27303 | 39024 ft | 423 kts | 230° |
| 2026-04-27 19:04 | 20.42108 | -67.32001 | 39021 ft | 423 kts | 230° |
| 2026-04-27 19:04 | 20.38201 | -67.36705 | 39013 ft | 423 kts | 230° |
| 2026-04-27 19:05 | 20.34300 | -67.41400 | 39016 ft | 423 kts | 230° |
| 2026-04-27 19:05 | 20.30394 | -67.46098 | 39014 ft | 423 kts | 230° |
| 2026-04-27 19:06 | 20.26505 | -67.50770 | 39014 ft | 423 kts | 229° |
| 2026-04-27 19:06 | 20.22591 | -67.55469 | 39009 ft | 424 kts | 229° |
| 2026-04-27 19:07 | 20.18679 | -67.60162 | 39008 ft | 424 kts | 229° |
| 2026-04-27 19:07 | 20.15415 | -67.64075 | 39017 ft | 425 kts | 229° |
| 2026-04-27 19:08 | 20.11492 | -67.68773 | 39016 ft | 424 kts | 229° |
| 2026-04-27 19:08 | 20.07569 | -67.73469 | 39016 ft | 424 kts | 229° |
| 2026-04-27 19:09 | 20.03650 | -67.78155 | 39016 ft | 424 kts | 229° |
| 2026-04-27 19:09 | 19.99728 | -67.82842 | 39011 ft | 424 kts | 229° |
| 2026-04-27 19:10 | 19.95806 | -67.87524 | 39017 ft | 424 kts | 229° |
| 2026-04-27 19:10 | 19.91875 | -67.92214 | 39017 ft | 425 kts | 229° |
| 2026-04-27 19:11 | 19.87930 | -67.96915 | 39013 ft | 425 kts | 229° |
| 2026-04-27 19:11 | 19.84019 | -68.01573 | 39012 ft | 426 kts | 229° |
| 2026-04-27 19:12 | 19.80076 | -68.06265 | 39009 ft | 426 kts | 229° |
| 2026-04-27 19:12 | 19.76124 | -68.10965 | 39007 ft | 427 kts | 229° |
| 2026-04-27 19:13 | 19.72166 | -68.15668 | 39017 ft | 427 kts | 229° |
| 2026-04-27 19:13 | 19.68207 | -68.20367 | 39016 ft | 427 kts | 229° |
| 2026-04-27 19:14 | 19.64248 | -68.25064 | 39012 ft | 427 kts | 229° |
| 2026-04-27 19:14 | 19.60282 | -68.29764 | 39009 ft | 427 kts | 229° |
| 2026-04-27 19:15 | 19.56340 | -68.34432 | 38997 ft | 427 kts | 229° |
| 2026-04-27 19:15 | 19.52376 | -68.39124 | 38994 ft | 427 kts | 229° |
| 2026-04-27 19:16 | 19.48403 | -68.43821 | 38996 ft | 428 kts | 229° |
| 2026-04-27 19:16 | 19.44428 | -68.48517 | 38997 ft | 428 kts | 228° |
| 2026-04-27 19:17 | 19.40442 | -68.53223 | 38997 ft | 429 kts | 228° |
| 2026-04-27 19:17 | 19.36452 | -68.57929 | 39002 ft | 429 kts | 228° |
| 2026-04-27 19:18 | 19.32459 | -68.62632 | 38999 ft | 429 kts | 228° |
| 2026-04-27 19:18 | 19.28447 | -68.67323 | 39004 ft | 429 kts | 228° |
| 2026-04-27 19:19 | 19.24464 | -68.71989 | 39003 ft | 430 kts | 228° |
| 2026-04-27 19:19 | 19.20797 | -68.76959 | 39022 ft | 430 kts | 239° |
| 2026-04-27 19:19 | 19.19445 | -68.79743 | 38866 ft | 422 kts | 245° |
| 2026-04-27 19:20 | 19.18458 | -68.82681 | 38047 ft | 426 kts | 252° |
| 2026-04-27 19:20 | 19.17847 | -68.85774 | 37253 ft | 431 kts | 258° |
| 2026-04-27 19:20 | 19.17624 | -68.88940 | 36575 ft | 433 kts | 265° |
| 2026-04-27 19:20 | 19.17806 | -68.92136 | 35890 ft | 438 kts | 273° |
| 2026-04-27 19:21 | 19.18401 | -68.95309 | 35190 ft | 444 kts | 280° |
| 2026-04-27 19:21 | 19.19405 | -68.98417 | 34460 ft | 449 kts | 285° |
| 2026-04-27 19:21 | 19.20522 | -69.01519 | 33643 ft | 453 kts | 285° |
| 2026-04-27 19:21 | 19.21648 | -69.04642 | 32855 ft | 455 kts | 285° |
| 2026-04-27 19:22 | 19.22788 | -69.07775 | 32020 ft | 458 kts | 286° |
| 2026-04-27 19:22 | 19.23938 | -69.10939 | 31152 ft | 462 kts | 286° |
| 2026-04-27 19:22 | 19.25090 | -69.14127 | 30243 ft | 464 kts | 287° |
| 2026-04-27 19:22 | 19.26232 | -69.17287 | 29278 ft | 465 kts | 287° |
| 2026-04-27 19:23 | 19.27386 | -69.20474 | 28384 ft | 462 kts | 287° |
| 2026-04-27 19:23 | 19.28529 | -69.23635 | 27538 ft | 458 kts | 287° |
| 2026-04-27 19:23 | 19.29663 | -69.26778 | 26699 ft | 454 kts | 287° |
| 2026-04-27 19:23 | 19.30785 | -69.29889 | 25883 ft | 451 kts | 288° |
| 2026-04-27 19:24 | 19.31900 | -69.32981 | 25080 ft | 448 kts | 288° |
| 2026-04-27 19:24 | 19.33008 | -69.36053 | 24293 ft | 445 kts | 288° |
| 2026-04-27 19:24 | 19.34102 | -69.39090 | 23818 ft | 434 kts | 288° |
| 2026-04-27 19:24 | 19.35158 | -69.42016 | 23763 ft | 421 kts | 288° |
| 2026-04-27 19:25 | 19.36223 | -69.44988 | 22757 ft | 439 kts | 288° |
| 2026-04-27 19:25 | 19.37214 | -69.48012 | 21956 ft | 431 kts | 282° |
| 2026-04-27 19:25 | 19.37718 | -69.51111 | 21135 ft | 424 kts | 272° |
| 2026-04-27 19:25 | 19.37710 | -69.54202 | 20334 ft | 418 kts | 263° |
| 2026-04-27 19:26 | 19.37211 | -69.57207 | 19523 ft | 413 kts | 253° |
| 2026-04-27 19:26 | 19.36252 | -69.60049 | 18728 ft | 409 kts | 244° |
| 2026-04-27 19:26 | 19.34868 | -69.62659 | 17914 ft | 405 kts | 235° |
| 2026-04-27 19:26 | 19.33116 | -69.64963 | 17141 ft | 399 kts | 226° |
| 2026-04-27 19:27 | 19.31060 | -69.66905 | 16399 ft | 394 kts | 217° |
| 2026-04-27 19:27 | 19.28772 | -69.68437 | 15961 ft | 383 kts | 208° |
| 2026-04-27 19:27 | 19.26381 | -69.69534 | 15961 ft | 382 kts | 200° |
| 2026-04-27 19:27 | 19.23742 | -69.70252 | 15956 ft | 387 kts | 191° |
| 2026-04-27 19:28 | 19.21090 | -69.70530 | 15561 ft | 370 kts | 182° |
| 2026-04-27 19:28 | 19.18611 | -69.70414 | 14587 ft | 344 kts | 180° |
| 2026-04-27 19:28 | 19.16314 | -69.70306 | 13852 ft | 318 kts | 180° |
| 2026-04-27 19:28 | 19.14190 | -69.70207 | 13162 ft | 293 kts | 180° |
| 2026-04-27 19:29 | 19.12184 | -69.70111 | 12269 ft | 295 kts | 180° |
| 2026-04-27 19:29 | 19.10196 | -69.70011 | 12260 ft | 280 kts | 180° |
| 2026-04-27 19:29 | 19.08232 | -69.69914 | 12232 ft | 286 kts | 180° |
| 2026-04-27 19:29 | 19.06230 | -69.69817 | 12044 ft | 288 kts | 180° |
| 2026-04-27 19:30 | 19.04255 | -69.69770 | 11745 ft | 281 kts | 184° |
| 2026-04-27 19:30 | 19.02280 | -69.69776 | 11370 ft | 286 kts | 181° |
| 2026-04-27 19:30 | 19.00291 | -69.69723 | 10997 ft | 286 kts | 181° |
| 2026-04-27 19:30 | 18.98303 | -69.69699 | 10614 ft | 285 kts | 181° |
| 2026-04-27 19:31 | 18.96327 | -69.69695 | 10247 ft | 282 kts | 181° |
| 2026-04-27 19:31 | 18.94380 | -69.69685 | 9876 ft | 277 kts | 181° |
| 2026-04-27 19:31 | 18.92546 | -69.69669 | 9513 ft | 271 kts | 181° |
| 2026-04-27 19:31 | 18.90672 | -69.69654 | 9152 ft | 267 kts | 181° |
| 2026-04-27 19:32 | 18.88835 | -69.69642 | 8805 ft | 261 kts | 181° |
| 2026-04-27 19:32 | 18.87061 | -69.69839 | 8460 ft | 254 kts | 190° |
| 2026-04-27 19:32 | 18.85308 | -69.70069 | 8125 ft | 254 kts | 187° |
| 2026-04-27 19:32 | 18.83559 | -69.70276 | 7787 ft | 252 kts | 187° |
| 2026-04-27 19:33 | 18.81825 | -69.70502 | 7457 ft | 250 kts | 188° |
| 2026-04-27 19:33 | 18.80665 | -69.70660 | 7248 ft | 246 kts | 188° |
| 2026-04-27 19:33 | 18.78508 | -69.70948 | 6853 ft | 226 kts | 188° |
| 2026-04-27 19:33 | 18.76975 | -69.71151 | 6550 ft | 219 kts | 188° |
| 2026-04-27 19:34 | 18.75465 | -69.71351 | 6247 ft | 219 kts | 188° |
| 2026-04-27 19:34 | 18.73966 | -69.71550 | 5956 ft | 216 kts | 188° |
| 2026-04-27 19:34 | 18.72474 | -69.71746 | 5671 ft | 216 kts | 187° |
| 2026-04-27 19:34 | 18.70978 | -69.71944 | 5389 ft | 216 kts | 187° |
| 2026-04-27 19:35 | 18.69486 | -69.72141 | 5101 ft | 215 kts | 187° |
| 2026-04-27 19:35 | 18.68021 | -69.72335 | 4825 ft | 210 kts | 187° |
| 2026-04-27 19:35 | 18.66584 | -69.72525 | 4530 ft | 206 kts | 187° |
| 2026-04-27 19:35 | 18.65182 | -69.72710 | 4268 ft | 200 kts | 187° |
| 2026-04-27 19:36 | 18.63825 | -69.72889 | 4008 ft | 194 kts | 187° |
| 2026-04-27 19:36 | 18.62506 | -69.73064 | 3754 ft | 188 kts | 186° |
| 2026-04-27 19:36 | 18.61230 | -69.73232 | 3499 ft | 182 kts | 186° |
| 2026-04-27 19:36 | 18.59981 | -69.73330 | 3256 ft | 178 kts | 175° |
| 2026-04-27 19:37 | 18.58814 | -69.72973 | 3038 ft | 175 kts | 160° |
| 2026-04-27 19:37 | 18.57675 | -69.72512 | 2817 ft | 173 kts | 159° |
| 2026-04-27 19:37 | 18.56549 | -69.72084 | 2586 ft | 173 kts | 160° |
| 2026-04-27 19:37 | 18.55416 | -69.71667 | 2354 ft | 171 kts | 160° |
| 2026-04-27 19:38 | 18.55221 | -69.71595 | 2314 ft | 172 kts | 160° |
| 2026-04-27 19:38 | 18.54864 | -69.71464 | 2252 ft | 171 kts | 161° |
| 2026-04-27 19:38 | 18.53757 | -69.71057 | 2030 ft | 162 kts | 161° |
| 2026-04-27 19:39 | 18.52740 | -69.70685 | 1805 ft | 149 kts | 161° |
| 2026-04-27 19:39 | 18.51793 | -69.70333 | 1629 ft | 145 kts | 161° |
| 2026-04-27 19:39 | 18.50838 | -69.69989 | 1415 ft | 142 kts | 160° |
| 2026-04-27 19:39 | 18.49908 | -69.69643 | 1234 ft | 147 kts | 161° |
| 2026-04-27 19:40 | 18.49039 | -69.69318 | 1071 ft | 151 kts | 161° |
| 2026-04-27 19:40 | 18.49001 | -69.69304 | 1062 ft | 151 kts | 161° |
| 2026-04-27 19:41 | 18.48322 | -69.69057 | 915 ft | 140 kts | 158° |
| 2026-04-27 19:41 | 18.47724 | -69.68836 | 789 ft | 143 kts | 161° |
| 2026-04-27 19:41 | 18.47085 | -69.68597 | 668 ft | 145 kts | 162° |
| 2026-04-27 19:41 | 18.46138 | -69.68250 | 470 ft | 147 kts | 161° |
| 2026-04-27 19:42 | 18.45201 | -69.67906 | 295 ft | 139 kts | 161° |
| 2026-04-27 19:42 | 18.44284 | -69.67570 | 112 ft | 140 kts | 162° |
| 2026-04-27 19:42 | 18.43450 | -69.67266 | 65 ft | 105 kts | 160° |
| 2026-04-27 19:42 | 18.42889 | -69.67059 | 72 ft | 72 kts | 160° |
| 2026-04-27 19:43 | 18.42480 | -69.66911 | 69 ft | 45 kts | 161° |
| 2026-04-27 19:43 | 18.42273 | -69.66821 | 68 ft | 24 kts | 135° |
| 2026-04-27 19:43 | 18.42214 | -69.66697 | 68 ft | 16 kts | 90° |
| 2026-04-27 19:43 | 18.42285 | -69.66647 | 67 ft | 9 kts | 334° |
| 2026-04-27 19:44 | 18.42291 | -69.66658 | 64 ft | 1 kts | 281° |
| 2026-04-27 19:44 | 18.42295 | -69.66702 | 65 ft | 11 kts | 277° |
| 2026-04-27 19:44 | 18.42314 | -69.66773 | 65 ft | 10 kts | 293° |
| 2026-04-27 19:44 | 18.42348 | -69.66846 | 62 ft | 11 kts | 312° |
| 2026-04-27 19:45 | 18.42437 | -69.66895 | 70 ft | 18 kts | 341° |
| 2026-04-27 19:45 | 18.42518 | -69.66924 | 69 ft | 19 kts | 341° |
| 2026-04-27 19:45 | 18.42686 | -69.66988 | 69 ft | 20 kts | 340° |
| 2026-04-27 19:45 | 18.42820 | -69.67032 | 69 ft | 20 kts | 342° |
| 2026-04-27 19:46 | 18.42930 | -69.67083 | 67 ft | 14 kts | 314° |
| 2026-04-27 19:46 | 18.42955 | -69.67184 | 70 ft | 17 kts | 278° |
| 2026-04-27 19:46 | 18.42967 | -69.67309 | 66 ft | 13 kts | 276° |
| 2026-04-27 19:46 | 18.42970 | -69.67362 | 62 ft | 3 kts | 264° |
| 2026-04-27 19:47 | 18.42968 | -69.67373 | 64 ft | 2 kts | 252° |
| 2026-04-27 19:47 | 18.42962 | -69.67390 | 66 ft | 5 kts | 250° |
| 2026-04-27 19:47 | 18.42953 | -69.67418 | 68 ft | 4 kts | 250° |
| 2026-04-27 19:47 | 18.42946 | -69.67437 | 71 ft | 0 kts | 250° |